NWS Watch, Warning or Advisory is in effect for Boone County, KY. View Alert

Weather Station Data

Station Data Captured at Five Minute Intervals Since Midnight Yesterday


Date Time Temp. RH % Dew Pt. Wind Speed Wind Dir. Peak Wind Wind Chill Pressure Precip. Solar W/m2 ET
6/23/17 9:35p 67.7 91 65.0 0.0 --- 0.0 67.7 29.697 0.00 0 0.000
6/23/17 9:30p 67.7 91 65.0 0.0 NNW 1.0 67.7 29.693 0.00 0 0.000
6/23/17 9:25p 67.7 91 65.0 0.0 NNW 1.0 67.7 29.691 0.00 0 0.000
6/23/17 9:20p 67.6 91 64.9 0.0 --- 0.0 67.6 29.686 0.00 0 0.000
6/23/17 9:15p 67.5 91 64.8 0.0 --- 0.0 67.5 29.684 0.00 0 0.000
6/23/17 9:10p 67.5 91 64.8 0.0 --- 0.0 67.5 29.674 0.00 0 0.000
6/23/17 9:05p 67.5 91 64.8 0.0 NNW 1.0 67.5 29.672 0.00 0 0.000
6/23/17 9:00p 67.5 91 64.8 0.0 NNW 2.0 67.5 29.667 0.00 0 0.000
6/23/17 8:55p 67.5 91 64.8 0.0 NNW 2.0 67.5 29.665 0.00 0 0.000
6/23/17 8:50p 67.5 91 64.8 0.0 NNW 2.0 67.5 29.657 0.00 5 0.000
6/23/17 8:45p 67.4 91 64.7 0.0 --- 0.0 67.4 29.653 0.00 5 0.000
6/23/17 8:40p 67.4 91 64.7 0.0 --- 0.0 67.4 29.649 0.00 2 0.000
6/23/17 8:35p 67.3 91 64.6 0.0 N 1.0 67.3 29.649 0.00 0 0.000
6/23/17 8:30p 67.3 91 64.6 0.0 N 3.0 67.3 29.646 0.00 0 0.000
6/23/17 8:25p 67.3 91 64.6 0.0 --- 0.0 67.3 29.637 0.00 0 0.000
6/23/17 8:20p 67.3 91 64.6 0.0 --- 0.0 67.3 29.628 0.00 0 0.000
6/23/17 8:15p 67.3 91 64.6 0.0 --- 0.0 67.3 29.623 0.00 0 0.000
6/23/17 8:10p 67.4 91 64.7 0.0 --- 0.0 67.4 29.621 0.00 0 0.000
6/23/17 8:05p 67.5 91 64.8 0.0 ENE 1.0 67.5 29.631 0.02 0 0.000
6/23/17 8:00p 67.5 91 64.8 0.0 --- 0.0 67.5 29.636 0.02 0 0.000
6/23/17 7:55p 67.5 91 64.8 0.0 --- 0.0 67.5 29.638 0.02 0 0.000
6/23/17 7:50p 67.6 91 64.9 0.0 ENE 1.0 67.6 29.633 0.02 0 0.000
6/23/17 7:45p 67.7 91 65.0 0.0 ENE 2.0 67.7 29.632 0.02 0 0.000
6/23/17 7:40p 67.7 91 65.0 0.0 ENE 2.0 67.7 29.628 0.02 0 0.000
6/23/17 7:35p 67.7 91 65.0 0.0 --- 0.0 67.7 29.627 0.02 0 0.000
6/23/17 7:30p 67.8 91 65.1 0.0 --- 0.0 67.8 29.621 0.02 0 0.000
6/23/17 7:25p 67.9 91 65.2 0.0 --- 0.0 67.9 29.628 0.02 0 0.000
6/23/17 7:20p 68.0 91 65.3 0.0 --- 0.0 68.0 29.632 0.01 0 0.000
6/23/17 7:15p 68.1 91 65.4 0.0 --- 0.0 68.1 29.636 0.01 0 0.000
6/23/17 7:10p 68.1 91 65.4 0.0 --- 0.0 68.1 29.636 0.01 1 0.000
6/23/17 7:05p 68.0 91 65.3 0.0 --- 0.0 68.0 29.635 0.01 5 0.000
6/23/17 7:00p 68.0 91 65.3 0.0 --- 0.0 68.0 29.639 0.01 5 0.000
6/23/17 6:55p 67.9 91 65.2 0.0 --- 0.0 67.9 29.642 0.00 7 0.000
6/23/17 6:50p 67.9 91 65.2 0.0 --- 0.0 67.9 29.644 0.00 8 0.000
6/23/17 6:45p 67.9 91 65.2 0.0 --- 0.0 67.9 29.643 0.01 10 0.000
6/23/17 6:40p 68.0 91 65.3 0.0 --- 0.0 68.0 29.642 0.00 12 0.000
6/23/17 6:35p 68.0 91 65.3 0.0 --- 0.0 68.0 29.640 0.01 15 0.000
6/23/17 6:30p 67.9 91 65.2 0.0 --- 0.0 67.9 29.639 0.00 18 0.000
6/23/17 6:25p 67.9 91 65.2 0.0 --- 0.0 67.9 29.637 0.01 23 0.000
6/23/17 6:20p 67.9 91 65.2 0.0 --- 0.0 67.9 29.636 0.01 27 0.000
6/23/17 6:15p 67.9 91 65.2 0.0 --- 0.0 67.9 29.635 0.00 33 0.000
6/23/17 6:10p 67.8 91 65.1 0.0 --- 0.0 67.8 29.634 0.01 30 0.000
6/23/17 6:05p 67.7 91 65.0 0.0 --- 0.0 67.7 29.631 0.01 31 0.000
6/23/17 6:00p 67.8 91 65.1 0.0 --- 0.0 67.8 29.629 0.01 29 0.001
6/23/17 5:55p 67.8 91 65.1 0.0 --- 0.0 67.8 29.640 0.02 28 0.000
6/23/17 5:50p 67.7 91 65.0 0.0 --- 0.0 67.7 29.642 0.02 32 0.000
6/23/17 5:45p 67.7 91 65.0 0.0 --- 0.0 67.7 29.647 0.03 29 0.000
6/23/17 5:40p 67.7 91 65.0 0.0 --- 0.0 67.7 29.651 0.04 26 0.000
6/23/17 5:35p 67.7 91 65.0 0.0 --- 0.0 67.7 29.648 0.03 20 0.000
6/23/17 5:30p 67.7 91 65.0 0.0 --- 0.0 67.7 29.650 0.01 18 0.000
6/23/17 5:25p 67.7 91 65.0 0.0 --- 0.0 67.7 29.649 0.02 21 0.000
6/23/17 5:20p 67.7 91 65.0 0.0 --- 0.0 67.7 29.641 0.01 27 0.000
6/23/17 5:15p 67.8 91 65.1 0.0 N 1.0 67.8 29.642 0.00 30 0.000
6/23/17 5:10p 67.7 91 65.0 0.0 --- 0.0 67.7 29.650 0.01 29 0.000
6/23/17 5:05p 67.7 91 65.0 0.0 NW 3.0 67.7 29.641 0.00 32 0.000
6/23/17 5:00p 67.8 91 65.1 1.0 N 3.0 67.8 29.636 0.02 33 0.001
6/23/17 4:55p 67.9 91 65.2 3.0 NW 10.0 67.9 29.635 0.06 26 0.000
6/23/17 4:50p 68.2 90 65.2 5.0 NW 13.0 68.2 29.648 0.20 15 0.000
6/23/17 4:45p 68.5 91 65.8 6.0 NW 11.0 68.5 29.661 0.22 12 0.000
6/23/17 4:40p 68.8 90 65.7 8.0 NW 15.0 68.1 29.660 0.14 11 0.000
6/23/17 4:35p 69.0 90 65.9 5.0 NW 11.0 69.0 29.660 0.04 10 0.000
6/23/17 4:30p 69.1 90 66.0 6.0 NW 13.0 69.1 29.652 0.03 11 0.000
6/23/17 4:25p 69.3 90 66.2 7.0 NW 12.0 69.3 29.641 0.04 13 0.000
6/23/17 4:20p 69.6 90 66.5 5.0 NW 11.0 69.6 29.639 0.04 21 0.000
6/23/17 4:15p 69.9 90 66.8 8.0 WNW 13.0 69.4 29.643 0.03 25 0.000
6/23/17 4:10p 70.3 90 67.2 7.0 NW 13.0 70.3 29.652 0.08 15 0.000
6/23/17 4:05p 70.8 90 67.7 8.0 WNW 14.0 70.3 29.661 0.14 9 0.000
6/23/17 4:00p 71.6 90 68.5 8.0 WNW 17.0 71.1 29.659 0.17 7 0.002
6/23/17 3:55p 72.2 90 69.1 7.0 NW 14.0 72.2 29.653 0.03 14 0.000
6/23/17 3:50p 72.4 90 69.3 6.0 NW 11.0 72.4 29.647 0.03 23 0.000
6/23/17 3:45p 72.6 90 69.5 5.0 NW 9.0 72.6 29.647 0.04 25 0.000
6/23/17 3:40p 72.8 90 69.7 0.0 WNW 3.0 72.8 29.649 0.01 16 0.000
6/23/17 3:35p 72.8 90 69.7 3.0 WNW 7.0 72.8 29.649 0.00 23 0.000
6/23/17 3:30p 73.0 90 69.9 3.0 NW 6.0 73.0 29.648 0.01 49 0.000
6/23/17 3:25p 73.0 90 69.9 4.0 WNW 7.0 73.0 29.649 0.02 63 0.000
6/23/17 3:20p 73.1 90 70.0 2.0 WNW 6.0 73.1 29.651 0.00 88 0.000
6/23/17 3:15p 73.1 90 70.0 2.0 WNW 7.0 73.1 29.652 0.00 100 0.000
6/23/17 3:10p 73.1 90 70.0 3.0 WNW 7.0 73.1 29.652 0.00 144 0.000
6/23/17 3:05p 73.2 90 70.1 3.0 WNW 8.0 73.2 29.650 0.00 142 0.000
6/23/17 3:00p 73.1 90 70.0 3.0 NW 8.0 73.1 29.653 0.00 159 0.004
6/23/17 2:55p 72.9 90 69.8 2.0 WSW 8.0 72.9 29.655 0.00 140 0.000
6/23/17 2:50p 72.9 90 69.8 2.0 WSW 10.0 72.9 29.654 0.00 115 0.000
6/23/17 2:45p 73.0 89 69.6 3.0 NW 9.0 73.0 29.657 0.04 84 0.000
6/23/17 2:40p 73.3 89 69.9 4.0 NW 10.0 73.3 29.668 0.06 29 0.000
6/23/17 2:35p 73.7 88 69.9 3.0 WNW 9.0 73.7 29.661 0.04 52 0.000
6/23/17 2:30p 74.2 88 70.4 4.0 WNW 9.0 74.2 29.662 0.02 50 0.000
6/23/17 2:25p 74.6 87 70.5 6.0 WNW 13.0 74.6 29.660 0.00 36 0.000
6/23/17 2:20p 75.7 86 71.2 7.0 NW 12.0 75.7 29.659 0.00 77 0.000
6/23/17 2:15p 76.9 84 71.7 6.0 NW 12.0 76.9 29.663 0.00 158 0.000
6/23/17 2:10p 77.6 84 72.4 6.0 WNW 15.0 77.6 29.666 0.00 325 0.000
6/23/17 2:05p 77.9 85 73.0 2.0 W 9.0 77.9 29.667 0.00 324 0.000
6/23/17 2:00p 77.7 86 73.2 2.0 WSW 6.0 77.7 29.669 0.00 249 0.008
6/23/17 1:55p 77.6 87 73.4 3.0 S 6.0 77.6 29.670 0.00 179 0.000
6/23/17 1:50p 77.6 86 73.1 3.0 S 9.0 77.6 29.670 0.00 158 0.000
6/23/17 1:45p 77.7 86 73.2 3.0 SSW 10.0 77.7 29.668 0.00 137 0.000
6/23/17 1:40p 77.9 86 73.4 3.0 S 7.0 77.9 29.664 0.00 250 0.000
6/23/17 1:35p 78.1 85 73.2 4.0 S 10.0 78.1 29.663 0.00 124 0.000
6/23/17 1:30p 78.3 85 73.4 5.0 SSW 14.0 78.3 29.663 0.00 228 0.000
6/23/17 1:25p 77.9 86 73.4 5.0 SSW 15.0 77.9 29.663 0.01 1115 0.000
6/23/17 1:20p 77.3 87 73.1 4.0 SSW 8.0 77.3 29.664 0.00 499 0.000
6/23/17 1:15p 77.0 88 73.2 3.0 SSW 9.0 77.0 29.664 0.00 364 0.000
6/23/17 1:10p 76.6 88 72.8 2.0 SSW 8.0 76.6 29.664 0.00 269 0.000
6/23/17 1:05p 76.5 88 72.7 2.0 S 8.0 76.5 29.667 0.00 147 0.000
6/23/17 1:00p 76.4 89 72.9 2.0 S 5.0 76.4 29.667 0.00 245 0.006
6/23/17 12:55p 76.0 89 72.5 3.0 SSW 8.0 76.0 29.666 0.00 225 0.000
6/23/17 12:50p 75.9 88 72.1 3.0 S 6.0 75.9 29.668 0.01 149 0.000
6/23/17 12:45p 75.8 89 72.3 3.0 S 9.0 75.8 29.670 0.00 172 0.000
6/23/17 12:40p 75.8 89 72.3 3.0 SSE 7.0 75.8 29.673 0.00 176 0.000
6/23/17 12:35p 75.7 88 71.9 3.0 S 5.0 75.7 29.673 0.00 235 0.000
6/23/17 12:30p 75.6 88 71.8 5.0 S 10.0 75.6 29.674 0.00 247 0.000
6/23/17 12:25p 75.7 88 71.9 3.0 S 6.0 75.7 29.678 0.00 383 0.000
6/23/17 12:20p 75.6 87 71.5 5.0 SSW 15.0 75.6 29.682 0.01 170 0.000
6/23/17 12:15p 75.9 87 71.8 3.0 SSW 10.0 75.9 29.682 0.00 79 0.000
6/23/17 12:10p 76.4 87 72.2 2.0 SSW 8.0 76.4 29.679 0.00 89 0.000
6/23/17 12:05p 76.8 86 72.3 3.0 SSW 8.0 76.8 29.679 0.01 231 0.000
6/23/17 12:00p 77.3 85 72.4 4.0 S 8.0 77.3 29.685 0.00 143 0.006
6/23/17 11:55a 77.9 84 72.7 2.0 SSW 5.0 77.9 29.684 0.01 86 0.000
6/23/17 11:50a 78.0 83 72.4 4.0 S 10.0 78.0 29.685 0.00 173 0.000
6/23/17 11:45a 78.0 83 72.4 4.0 SSW 9.0 78.0 29.688 0.00 153 0.000
6/23/17 11:40a 77.8 83 72.2 5.0 S 10.0 77.8 29.688 0.00 190 0.000
6/23/17 11:35a 77.7 84 72.5 4.0 S 9.0 77.7 29.689 0.00 129 0.000
6/23/17 11:30a 77.8 84 72.6 4.0 SSW 14.0 77.8 29.691 0.00 91 0.000
6/23/17 11:25a 77.9 84 72.7 5.0 S 9.0 77.9 29.691 0.00 92 0.000
6/23/17 11:20a 78.2 84 73.0 4.0 S 9.0 78.2 29.691 0.00 214 0.000
6/23/17 11:15a 78.3 84 73.1 5.0 SSW 11.0 78.3 29.693 0.00 377 0.000
6/23/17 11:10a 78.0 85 73.1 4.0 S 15.0 78.0 29.692 0.00 413 0.000
6/23/17 11:05a 77.8 85 72.9 4.0 SSW 9.0 77.8 29.695 0.00 441 0.000
6/23/17 11:00a 77.5 85 72.6 5.0 SSW 11.0 77.5 29.694 0.00 283 0.008
6/23/17 10:55a 77.0 85 72.1 4.0 SSW 8.0 77.0 29.692 0.00 283 0.000
6/23/17 10:50a 76.4 86 71.9 4.0 SSW 8.0 76.4 29.695 0.00 368 0.000
6/23/17 10:45a 76.0 86 71.5 5.0 S 12.0 76.0 29.698 0.00 226 0.000
6/23/17 10:40a 76.0 86 71.5 4.0 S 10.0 76.0 29.698 0.00 309 0.000
6/23/17 10:35a 75.7 87 71.6 3.0 SSW 9.0 75.7 29.702 0.00 313 0.000
6/23/17 10:30a 75.5 87 71.4 4.0 S 9.0 75.5 29.704 0.00 181 0.000
6/23/17 10:25a 75.5 87 71.4 4.0 SSW 11.0 75.5 29.705 0.00 148 0.000
6/23/17 10:20a 75.4 87 71.3 5.0 SSE 11.0 75.4 29.703 0.00 233 0.000
6/23/17 10:15a 75.3 88 71.5 6.0 SSW 12.0 75.3 29.702 0.00 227 0.000
6/23/17 10:10a 75.2 88 71.4 5.0 SSW 13.0 75.2 29.704 0.00 344 0.000
6/23/17 10:05a 74.8 89 71.3 3.0 SSW 10.0 74.8 29.703 0.00 226 0.000
6/23/17 10:00a 74.6 88 70.8 4.0 SSW 9.0 74.6 29.701 0.00 130 0.004
6/23/17 9:55a 74.6 89 71.1 4.0 SSW 8.0 74.6 29.702 0.00 127 0.000
6/23/17 9:50a 74.5 89 71.0 4.0 SSW 11.0 74.5 29.704 0.00 123 0.000
6/23/17 9:45a 74.4 89 70.9 5.0 S 11.0 74.4 29.704 0.00 137 0.000
6/23/17 9:40a 74.3 90 71.2 4.0 S 11.0 74.3 29.704 0.00 205 0.000
6/23/17 9:35a 74.1 90 71.0 4.0 S 7.0 74.1 29.705 0.00 125 0.000
6/23/17 9:30a 73.9 90 70.8 4.0 SSW 11.0 73.9 29.705 0.00 99 0.000
6/23/17 9:25a 73.9 90 70.8 4.0 S 15.0 73.9 29.705 0.00 102 0.000
6/23/17 9:20a 73.9 90 70.8 3.0 SSW 8.0 73.9 29.706 0.00 112 0.000
6/23/17 9:15a 73.7 90 70.6 5.0 S 10.0 73.7 29.706 0.00 130 0.000
6/23/17 9:10a 73.7 91 70.9 4.0 S 10.0 73.7 29.706 0.00 126 0.000
6/23/17 9:05a 73.5 91 70.7 7.0 SSW 15.0 73.5 29.705 0.00 190 0.000
6/23/17 9:00a 73.3 91 70.5 5.0 S 11.0 73.3 29.703 0.00 115 0.001
6/23/17 8:55a 73.1 91 70.3 4.0 SSW 10.0 73.1 29.703 0.00 75 0.000
6/23/17 8:50a 73.1 91 70.3 3.0 SSW 9.0 73.1 29.705 0.00 96 0.000
6/23/17 8:45a 73.0 91 70.2 3.0 SSE 10.0 73.0 29.705 0.00 36 0.000
6/23/17 8:40a 72.9 91 70.1 3.0 S 7.0 72.9 29.706 0.00 19 0.000
6/23/17 8:35a 72.9 91 70.1 2.0 S 6.0 72.9 29.708 0.00 17 0.000
6/23/17 8:30a 72.9 91 70.1 2.0 S 8.0 72.9 29.711 0.00 13 0.000
6/23/17 8:25a 72.9 91 70.1 3.0 S 7.0 72.9 29.711 0.00 18 0.000
6/23/17 8:20a 72.9 91 70.1 2.0 S 6.0 72.9 29.712 0.00 50 0.000
6/23/17 8:15a 72.8 91 70.0 4.0 SSW 9.0 72.8 29.709 0.01 34 0.000
6/23/17 8:10a 72.8 91 70.0 4.0 S 10.0 72.8 29.711 0.00 19 0.000
6/23/17 8:05a 72.8 91 70.0 4.0 SSW 10.0 72.8 29.710 0.00 15 0.000
6/23/17 8:00a 72.8 91 70.0 3.0 S 11.0 72.8 29.707 0.00 18 0.001
6/23/17 7:55a 72.7 91 69.9 3.0 S 8.0 72.7 29.708 0.00 24 0.000
6/23/17 7:50a 72.7 91 69.9 3.0 SSW 11.0 72.7 29.703 0.00 21 0.000
6/23/17 7:45a 72.7 91 69.9 4.0 S 11.0 72.7 29.705 0.00 14 0.000
6/23/17 7:40a 72.7 91 69.9 4.0 SSW 11.0 72.7 29.706 0.00 7 0.000
6/23/17 7:35a 72.7 91 69.9 3.0 SSW 9.0 72.7 29.707 0.00 1 0.000
6/23/17 7:30a 72.7 91 69.9 2.0 SSE 8.0 72.7 29.705 0.01 0 0.000
6/23/17 7:25a 72.7 91 69.9 4.0 S 12.0 72.7 29.705 0.01 3 0.000
6/23/17 7:20a 72.7 91 69.9 4.0 SSW 12.0 72.7 29.705 0.00 17 0.000
6/23/17 7:15a 72.7 91 69.9 3.0 S 9.0 72.7 29.708 0.00 16 0.000
6/23/17 7:10a 72.7 91 69.9 3.0 SSE 10.0 72.7 29.706 0.00 4 0.000
6/23/17 7:05a 72.7 91 69.9 2.0 S 6.0 72.7 29.706 0.00 1 0.000
6/23/17 7:00a 72.7 91 69.9 3.0 S 9.0 72.7 29.706 0.01 2 0.000
6/23/17 6:55a 72.7 91 69.9 4.0 S 8.0 72.7 29.705 0.01 2 0.000
6/23/17 6:50a 72.7 91 69.9 2.0 S 6.0 72.7 29.707 0.01 12 0.000
6/23/17 6:45a 72.7 91 69.9 2.0 SSW 5.0 72.7 29.707 0.01 8 0.000
6/23/17 6:40a 72.7 91 69.9 2.0 SSW 5.0 72.7 29.709 0.00 0 0.000
6/23/17 6:35a 72.6 90 69.5 3.0 S 8.0 72.6 29.708 0.00 0 0.000
6/23/17 6:30a 72.6 91 69.8 2.0 SSE 7.0 72.6 29.711 0.00 0 0.000
6/23/17 6:25a 72.6 91 69.8 3.0 SSW 10.0 72.6 29.711 0.00 0 0.000
6/23/17 6:20a 72.6 91 69.8 3.0 SSW 9.0 72.6 29.713 0.00 0 0.000
6/23/17 6:15a 72.5 91 69.7 3.0 S 7.0 72.5 29.713 0.00 0 0.000
6/23/17 6:10a 72.5 90 69.4 2.0 SSE 5.0 72.5 29.712 0.00 0 0.000
6/23/17 6:05a 72.5 90 69.4 2.0 S 5.0 72.5 29.715 0.00 0 0.000
6/23/17 6:00a 72.5 90 69.4 2.0 S 7.0 72.5 29.715 0.00 0 0.001
6/23/17 5:55a 72.5 90 69.4 4.0 S 10.0 72.5 29.717 0.00 0 0.000
6/23/17 5:50a 72.5 91 69.7 3.0 S 6.0 72.5 29.716 0.00 0 0.000
6/23/17 5:45a 72.4 91 69.6 3.0 SSW 8.0 72.4 29.719 0.00 0 0.000
6/23/17 5:40a 72.4 91 69.6 2.0 SSW 6.0 72.4 29.719 0.00 0 0.000
6/23/17 5:35a 72.4 91 69.6 2.0 S 4.0 72.4 29.718 0.00 0 0.000
6/23/17 5:30a 72.4 91 69.6 2.0 SSW 5.0 72.4 29.718 0.00 0 0.000
6/23/17 5:25a 72.3 91 69.5 2.0 SSW 7.0 72.3 29.718 0.00 0 0.000
6/23/17 5:20a 72.3 91 69.5 2.0 SSW 9.0 72.3 29.719 0.00 0 0.000
6/23/17 5:15a 72.3 91 69.5 2.0 SSE 6.0 72.3 29.719 0.00 0 0.000
6/23/17 5:10a 72.3 90 69.2 3.0 S 7.0 72.3 29.719 0.00 0 0.000
6/23/17 5:05a 72.3 90 69.2 2.0 S 6.0 72.3 29.719 0.00 0 0.000
6/23/17 5:00a 72.3 91 69.5 2.0 SSW 6.0 72.3 29.720 0.00 0 0.001
6/23/17 4:55a 72.3 91 69.5 3.0 SSW 6.0 72.3 29.721 0.00 0 0.000
6/23/17 4:50a 72.2 91 69.4 3.0 S 8.0 72.2 29.725 0.00 0 0.000
6/23/17 4:45a 72.2 91 69.4 3.0 SSW 6.0 72.2 29.726 0.00 0 0.000
6/23/17 4:40a 72.2 91 69.4 3.0 S 8.0 72.2 29.727 0.00 0 0.000
6/23/17 4:35a 72.2 91 69.4 2.0 S 8.0 72.2 29.727 0.00 0 0.000
6/23/17 4:30a 72.1 91 69.3 2.0 SSW 6.0 72.1 29.727 0.00 0 0.000
6/23/17 4:25a 72.1 91 69.3 3.0 S 10.0 72.1 29.727 0.00 0 0.000
6/23/17 4:20a 72.1 91 69.3 3.0 SSE 9.0 72.1 29.728 0.00 0 0.000
6/23/17 4:15a 72.1 91 69.3 3.0 SSW 6.0 72.1 29.729 0.00 0 0.000
6/23/17 4:10a 72.0 91 69.2 3.0 SSW 7.0 72.0 29.728 0.00 0 0.000
6/23/17 4:05a 72.0 91 69.2 3.0 SSE 7.0 72.0 29.729 0.00 0 0.000
6/23/17 4:00a 71.9 91 69.1 4.0 S 11.0 71.9 29.727 0.00 0 0.001
6/23/17 3:55a 71.9 91 69.1 3.0 S 8.0 71.9 29.730 0.00 0 0.000
6/23/17 3:50a 71.9 91 69.1 5.0 S 9.0 71.9 29.733 0.00 0 0.000
6/23/17 3:45a 71.8 90 68.7 3.0 S 7.0 71.8 29.733 0.00 0 0.000
6/23/17 3:40a 71.8 91 69.0 4.0 SSW 8.0 71.8 29.735 0.00 0 0.000
6/23/17 3:35a 71.7 91 68.9 3.0 SSW 8.0 71.7 29.735 0.00 0 0.000
6/23/17 3:30a 71.7 91 68.9 4.0 S 11.0 71.7 29.734 0.00 0 0.000
6/23/17 3:25a 71.7 91 68.9 4.0 SSW 8.0 71.7 29.738 0.00 0 0.000
6/23/17 3:20a 71.6 91 68.8 3.0 S 8.0 71.6 29.741 0.00 0 0.000
6/23/17 3:15a 71.5 91 68.7 3.0 S 7.0 71.5 29.742 0.00 0 0.000
6/23/17 3:10a 71.5 91 68.7 2.0 S 5.0 71.5 29.745 0.00 0 0.000
6/23/17 3:05a 71.4 91 68.6 3.0 S 8.0 71.4 29.747 0.00 0 0.000
6/23/17 3:00a 71.3 91 68.5 3.0 SSW 7.0 71.3 29.750 0.00 0 0.001
6/23/17 2:55a 71.3 91 68.5 2.0 S 9.0 71.3 29.754 0.00 0 0.000
6/23/17 2:50a 71.3 91 68.5 3.0 S 8.0 71.3 29.757 0.00 0 0.000
6/23/17 2:45a 71.2 91 68.4 2.0 SSW 7.0 71.2 29.758 0.00 0 0.000
6/23/17 2:40a 71.2 91 68.4 4.0 SSW 9.0 71.2 29.763 0.00 0 0.000
6/23/17 2:35a 71.1 91 68.3 3.0 SSW 10.0 71.1 29.763 0.00 0 0.000
6/23/17 2:30a 71.0 91 68.2 3.0 SSW 8.0 71.0 29.764 0.00 0 0.000
6/23/17 2:25a 71.0 91 68.2 4.0 SSW 7.0 71.0 29.765 0.00 0 0.000
6/23/17 2:20a 70.9 91 68.1 2.0 SSW 5.0 70.9 29.768 0.00 0 0.000
6/23/17 2:15a 70.9 91 68.1 4.0 SSW 10.0 70.9 29.772 0.00 0 0.000
6/23/17 2:10a 70.8 91 68.0 3.0 SSW 10.0 70.8 29.775 0.00 0 0.000
6/23/17 2:05a 70.7 91 67.9 2.0 S 8.0 70.7 29.776 0.00 0 0.000
6/23/17 2:00a 70.6 91 67.8 3.0 S 9.0 70.6 29.776 0.00 0 0.000
6/23/17 1:55a 70.6 91 67.8 2.0 SSW 6.0 70.6 29.777 0.00 0 0.000
6/23/17 1:50a 70.5 91 67.7 3.0 SSW 9.0 70.5 29.779 0.00 0 0.000
6/23/17 1:45a 70.5 91 67.7 2.0 S 4.0 70.5 29.780 0.00 0 0.000
6/23/17 1:40a 70.5 91 67.7 2.0 SSW 6.0 70.5 29.780 0.00 0 0.000
6/23/17 1:35a 70.5 91 67.7 3.0 S 7.0 70.5 29.781 0.00 0 0.000
6/23/17 1:30a 70.4 91 67.6 2.0 S 8.0 70.4 29.782 0.00 0 0.000
6/23/17 1:25a 70.4 91 67.6 4.0 S 7.0 70.4 29.782 0.00 0 0.000
6/23/17 1:20a 70.3 91 67.5 3.0 SSE 9.0 70.3 29.785 0.00 0 0.000
6/23/17 1:15a 70.3 91 67.5 3.0 SSW 6.0 70.3 29.786 0.00 0 0.000
6/23/17 1:10a 70.2 91 67.4 2.0 SSE 7.0 70.2 29.787 0.00 0 0.000
6/23/17 1:05a 70.1 91 67.3 3.0 SSW 7.0 70.1 29.790 0.00 0 0.000
6/23/17 1:00a 70.0 91 67.3 4.0 SSW 7.0 70.0 29.792 0.00 0 0.000
6/23/17 12:55a 69.9 91 67.2 2.0 S 6.0 69.9 29.795 0.00 0 0.000
6/23/17 12:50a 69.7 91 67.0 2.0 S 8.0 69.7 29.797 0.00 0 0.000
6/23/17 12:45a 69.6 91 66.9 2.0 SSW 7.0 69.6 29.799 0.00 0 0.000
6/23/17 12:40a 69.5 91 66.8 3.0 S 8.0 69.5 29.802 0.00 0 0.000
6/23/17 12:35a 69.4 91 66.7 3.0 S 6.0 69.4 29.801 0.00 0 0.000
6/23/17 12:30a 69.3 91 66.6 2.0 SSW 5.0 69.3 29.803 0.00 0 0.000
6/23/17 12:25a 69.2 91 66.5 1.0 S 5.0 69.2 29.802 0.00 0 0.000
6/23/17 12:20a 69.2 91 66.5 1.0 S 5.0 69.2 29.803 0.00 0 0.000
6/23/17 12:15a 69.2 91 66.5 0.0 SSW 1.0 69.2 29.806 0.00 0 0.000
6/23/17 12:10a 69.1 91 66.4 0.0 SW 3.0 69.1 29.808 0.00 0 0.000
6/23/17 12:05a 69.0 91 66.3 0.0 S 2.0 69.0 29.805 0.00 0 0.000
6/23/17 12:00a 68.9 91 66.2 1.0 SSE 4.0 68.9 29.810 0.00 0 0.000
6/22/17 11:55p 68.8 91 66.1 1.0 ESE 3.0 68.8 29.812 0.00 0 0.000
6/22/17 11:50p 68.8 91 66.1 1.0 SSE 3.0 68.8 29.811 0.00 0 0.000
6/22/17 11:45p 68.8 91 66.1 1.0 SE 3.0 68.8 29.815 0.00 0 0.000
6/22/17 11:40p 68.8 91 66.1 1.0 SE 4.0 68.8 29.814 0.00 0 0.000
6/22/17 11:35p 68.8 91 66.1 1.0 SE 4.0 68.8 29.816 0.00 0 0.000
6/22/17 11:30p 68.8 91 66.1 1.0 ESE 6.0 68.8 29.817 0.00 0 0.000
6/22/17 11:25p 68.8 91 66.1 1.0 SSE 3.0 68.8 29.817 0.01 0 0.000
6/22/17 11:20p 68.9 91 66.2 1.0 SE 3.0 68.9 29.818 0.05 0 0.000
6/22/17 11:15p 68.9 91 66.2 2.0 ESE 6.0 68.9 29.822 0.13 0 0.000
6/22/17 11:10p 68.9 91 66.2 2.0 SE 6.0 68.9 29.828 0.00 0 0.000
6/22/17 11:05p 68.9 91 66.2 2.0 ESE 6.0 68.9 29.827 0.00 0 0.000
6/22/17 11:00p 68.9 91 66.2 1.0 S 4.0 68.9 29.826 0.01 0 0.000
6/22/17 10:55p 68.9 91 66.2 1.0 SE 3.0 68.9 29.827 0.00 0 0.000
6/22/17 10:50p 68.9 91 66.2 1.0 ESE 3.0 68.9 29.824 0.00 0 0.000
6/22/17 10:45p 68.9 90 65.8 2.0 SE 5.0 68.9 29.824 0.00 0 0.000
6/22/17 10:40p 68.9 90 65.8 1.0 SE 3.0 68.9 29.823 0.00 0 0.000
6/22/17 10:35p 68.9 90 65.8 1.0 SE 5.0 68.9 29.826 0.00 0 0.000
6/22/17 10:30p 68.9 90 65.8 2.0 SE 6.0 68.9 29.829 0.00 0 0.000
6/22/17 10:25p 68.9 90 65.8 1.0 SE 6.0 68.9 29.829 0.01 0 0.000
6/22/17 10:20p 68.9 90 65.8 2.0 S 6.0 68.9 29.827 0.00 0 0.000
6/22/17 10:15p 68.9 90 65.8 2.0 SE 5.0 68.9 29.827 0.00 0 0.000
6/22/17 10:10p 68.9 90 65.8 2.0 SSE 6.0 68.9 29.828 0.00 0 0.000
6/22/17 10:05p 68.9 90 65.8 3.0 SSE 9.0 68.9 29.828 0.00 0 0.000
6/22/17 10:00p 69.0 90 65.9 4.0 S 11.0 69.0 29.828 0.00 0 0.001
6/22/17 9:55p 69.1 90 66.0 3.0 SSE 7.0 69.1 29.825 0.00 0 0.000
6/22/17 9:50p 69.2 90 66.1 4.0 S 12.0 69.2 29.827 0.00 0 0.000
6/22/17 9:45p 69.4 90 66.3 4.0 S 11.0 69.4 29.828 0.00 0 0.000
6/22/17 9:40p 69.4 90 66.3 4.0 S 12.0 69.4 29.829 0.00 0 0.000
6/22/17 9:35p 69.5 90 66.4 5.0 SSW 13.0 69.5 29.827 0.00 0 0.000
6/22/17 9:30p 69.6 90 66.5 5.0 S 15.0 69.6 29.828 0.01 0 0.000
6/22/17 9:25p 69.7 90 66.6 6.0 S 15.0 69.7 29.827 0.00 0 0.000
6/22/17 9:20p 69.8 89 66.4 6.0 SSW 13.0 69.8 29.825 0.01 0 0.000
6/22/17 9:15p 70.2 89 66.8 6.0 S 16.0 70.2 29.823 0.00 0 0.000
6/22/17 9:10p 70.4 90 67.3 4.0 S 13.0 70.4 29.825 0.01 0 0.000
6/22/17 9:05p 70.6 90 67.5 4.0 SSW 9.0 70.6 29.820 0.00 0 0.000
6/22/17 9:00p 70.8 90 67.7 4.0 SSW 7.0 70.8 29.823 0.00 0 0.000
6/22/17 8:55p 70.8 90 67.7 5.0 S 12.0 70.8 29.827 0.00 1 0.000
6/22/17 8:50p 70.8 90 67.7 5.0 SSW 12.0 70.8 29.827 0.00 2 0.000
6/22/17 8:45p 70.8 89 67.4 3.0 SSW 7.0 70.8 29.829 0.00 4 0.000
6/22/17 8:40p 70.9 89 67.5 3.0 S 9.0 70.9 29.831 0.00 6 0.000
6/22/17 8:35p 70.9 91 68.1 2.0 S 6.0 70.9 29.833 0.00 7 0.000
6/22/17 8:30p 70.9 91 68.1 2.0 S 8.0 70.9 29.834 0.00 6 0.000
6/22/17 8:25p 70.9 91 68.1 2.0 S 6.0 70.9 29.835 0.00 7 0.000
6/22/17 8:20p 71.0 91 68.2 2.0 SSW 5.0 71.0 29.836 0.01 9 0.000
6/22/17 8:15p 71.0 91 68.2 0.0 SE 2.0 71.0 29.837 0.00 9 0.000
6/22/17 8:10p 71.0 90 67.9 3.0 SSW 7.0 71.0 29.840 0.00 15 0.000
6/22/17 8:05p 71.1 91 68.3 1.0 S 9.0 71.1 29.841 0.01 22 0.000
6/22/17 8:00p 71.1 90 68.0 2.0 SSW 6.0 71.1 29.844 0.00 22 0.001
6/22/17 7:55p 71.1 90 68.0 1.0 SE 4.0 71.1 29.849 0.00 14 0.000
6/22/17 7:50p 71.1 90 68.0 2.0 SSE 5.0 71.1 29.850 0.00 10 0.000
6/22/17 7:45p 71.2 90 68.1 1.0 ESE 2.0 71.2 29.849 0.00 11 0.000
6/22/17 7:40p 71.2 90 68.1 2.0 SE 5.0 71.2 29.851 0.00 12 0.000
6/22/17 7:35p 71.2 90 68.1 1.0 SSE 2.0 71.2 29.850 0.00 26 0.000
6/22/17 7:30p 71.3 90 68.2 1.0 SE 4.0 71.3 29.848 0.00 38 0.000
6/22/17 7:25p 71.3 90 68.2 1.0 ESE 3.0 71.3 29.850 0.00 36 0.000
6/22/17 7:20p 71.5 90 68.4 1.0 SSE 5.0 71.5 29.852 0.00 47 0.000
6/22/17 7:15p 71.4 90 68.3 1.0 SSE 4.0 71.4 29.854 0.00 52 0.000
6/22/17 7:10p 71.5 90 68.4 1.0 S 4.0 71.5 29.855 0.00 53 0.000
6/22/17 7:05p 71.5 90 68.4 0.0 SE 2.0 71.5 29.855 0.00 41 0.000
6/22/17 7:00p 71.6 89 68.2 0.0 SSW 2.0 71.6 29.855 0.01 39 0.001
6/22/17 6:55p 71.6 89 68.2 1.0 SSW 5.0 71.6 29.855 0.00 47 0.000
6/22/17 6:50p 71.6 89 68.2 2.0 SSW 7.0 71.6 29.856 0.00 53 0.000
6/22/17 6:45p 71.8 89 68.4 1.0 SSW 4.0 71.8 29.857 0.01 52 0.000
6/22/17 6:40p 71.8 89 68.4 1.0 SSW 4.0 71.8 29.858 0.01 40 0.000
6/22/17 6:35p 72.0 88 68.2 2.0 SSW 5.0 72.0 29.862 0.01 28 0.000
6/22/17 6:30p 72.2 88 68.4 3.0 SSW 9.0 72.2 29.864 0.00 23 0.000
6/22/17 6:25p 72.5 87 68.4 3.0 SSW 8.0 72.5 29.865 0.00 17 0.000
6/22/17 6:20p 72.9 87 68.8 2.0 S 6.0 72.9 29.867 0.01 22 0.000
6/22/17 6:15p 73.3 86 68.9 3.0 S 7.0 73.3 29.869 0.00 32 0.000
6/22/17 6:10p 73.6 84 68.5 4.0 S 8.0 73.6 29.870 0.00 42 0.000
6/22/17 6:05p 74.1 84 69.0 3.0 S 7.0 74.1 29.871 0.00 47 0.000
6/22/17 6:00p 74.6 82 68.7 4.0 S 9.0 74.6 29.870 0.00 60 0.004
6/22/17 5:55p 75.1 81 68.9 5.0 S 12.0 75.1 29.869 0.00 77 0.000
6/22/17 5:50p 75.5 81 69.3 3.0 SSW 9.0 75.5 29.873 0.00 78 0.000
6/22/17 5:45p 75.5 80 68.9 4.0 SSW 10.0 75.5 29.873 0.00 122 0.000
6/22/17 5:40p 75.5 80 68.9 5.0 SSW 9.0 75.5 29.873 0.00 109 0.000
6/22/17 5:35p 75.7 79 68.7 5.0 S 13.0 75.7 29.876 0.00 42 0.000
6/22/17 5:30p 76.0 79 69.0 4.0 S 11.0 76.0 29.875 0.00 66 0.000
6/22/17 5:25p 76.2 80 69.6 3.0 SSW 8.0 76.2 29.879 0.00 61 0.000
6/22/17 5:20p 76.5 79 69.5 4.0 S 9.0 76.5 29.878 0.00 84 0.000
6/22/17 5:15p 76.6 78 69.2 6.0 SSW 11.0 76.6 29.875 0.00 174 0.000
6/22/17 5:10p 76.7 78 69.3 6.0 S 13.0 76.7 29.878 0.00 207 0.000
6/22/17 5:05p 76.9 77 69.1 6.0 SSW 15.0 76.9 29.879 0.00 175 0.000
6/22/17 5:00p 77.3 76 69.1 6.0 SSW 13.0 77.3 29.879 0.00 185 0.009
6/22/17 4:55p 77.6 76 69.4 7.0 S 15.0 77.6 29.877 0.00 224 0.000
6/22/17 4:50p 77.8 76 69.6 7.0 S 13.0 77.8 29.875 0.00 308 0.000
6/22/17 4:45p 78.1 76 69.9 6.0 SSW 12.0 78.1 29.876 0.00 329 0.000
6/22/17 4:40p 78.4 77 70.6 3.0 S 7.0 78.4 29.875 0.00 349 0.000
6/22/17 4:35p 78.2 77 70.4 4.0 S 8.0 78.2 29.879 0.00 266 0.000
6/22/17 4:30p 77.8 76 69.6 6.0 SSW 17.0 77.8 29.882 0.00 277 0.000
6/22/17 4:25p 78.0 75 69.4 6.0 SSW 14.0 78.0 29.883 0.00 298 0.000
6/22/17 4:20p 78.1 77 70.3 5.0 SSW 16.0 78.1 29.884 0.00 270 0.000
6/22/17 4:15p 78.3 76 70.1 5.0 SSW 15.0 78.3 29.887 0.00 225 0.000
6/22/17 4:10p 78.6 76 70.4 4.0 SSW 9.0 78.6 29.892 0.00 219 0.000
6/22/17 4:05p 78.9 76 70.7 5.0 S 15.0 78.9 29.890 0.00 229 0.000
6/22/17 4:00p 79.2 76 71.0 5.0 SSW 14.0 79.2 29.891 0.00 405 0.016
6/22/17 3:55p 79.3 75 70.7 5.0 S 18.0 79.3 29.896 0.00 746 0.000
6/22/17 3:50p 78.7 76 70.5 4.0 S 14.0 78.7 29.897 0.00 504 0.000
6/22/17 3:45p 78.8 75 70.2 5.0 SSW 12.0 78.8 29.900 0.00 328 0.000
6/22/17 3:40p 79.3 75 70.7 6.0 S 11.0 79.3 29.904 0.00 397 0.000
6/22/17 3:35p 79.8 75 71.2 4.0 SSW 12.0 79.8 29.904 0.00 512 0.000
6/22/17 3:30p 79.7 76 71.5 5.0 S 9.0 79.7 29.906 0.00 655 0.000
6/22/17 3:25p 79.4 74 70.4 7.0 SSW 17.0 79.4 29.907 0.00 605 0.000
6/22/17 3:20p 79.4 76 71.2 6.0 S 12.0 79.4 29.908 0.00 557 0.000
6/22/17 3:15p 79.4 74 70.4 7.0 SSW 13.0 79.4 29.906 0.00 533 0.000
6/22/17 3:10p 79.7 76 71.5 4.0 SE 11.0 79.7 29.907 0.00 818 0.000
6/22/17 3:05p 79.1 77 71.3 4.0 SSE 11.0 79.1 29.909 0.00 436 0.000
6/22/17 3:00p 78.8 76 70.6 5.0 SSW 12.0 78.8 29.915 0.00 595 0.014
6/22/17 2:55p 78.7 76 70.5 4.0 SSW 9.0 78.7 29.917 0.00 417 0.000
6/22/17 2:50p 78.7 76 70.5 6.0 SSW 13.0 78.7 29.919 0.00 486 0.000
6/22/17 2:45p 78.8 76 70.6 6.0 S 13.0 78.8 29.919 0.00 377 0.000
6/22/17 2:40p 79.3 75 70.7 5.0 SSW 13.0 79.3 29.917 0.00 354 0.000
6/22/17 2:35p 79.5 76 71.3 4.0 S 11.0 79.5 29.915 0.00 414 0.000
6/22/17 2:30p 79.5 75 70.9 5.0 S 11.0 79.5 29.916 0.00 533 0.000
6/22/17 2:25p 79.5 74 70.5 9.0 SSW 18.0 78.4 29.919 0.00 543 0.000
6/22/17 2:20p 79.8 76 71.6 6.0 S 17.0 79.8 29.921 0.00 673 0.000
6/22/17 2:15p 79.7 75 71.1 7.0 S 13.0 79.7 29.920 0.00 748 0.000
6/22/17 2:10p 79.3 77 71.5 4.0 SSE 9.0 79.3 29.924 0.00 404 0.000
6/22/17 2:05p 79.0 77 71.2 5.0 S 13.0 79.0 29.926 0.00 315 0.000
6/22/17 2:00p 79.0 77 71.2 5.0 SSW 12.0 79.0 29.933 0.00 201 0.011
6/22/17 1:55p 79.2 76 71.0 6.0 S 14.0 79.2 29.932 0.00 437 0.000
6/22/17 1:50p 79.1 77 71.3 5.0 S 13.0 79.1 29.934 0.00 385 0.000
6/22/17 1:45p 79.2 77 71.4 3.0 S 9.0 79.2 29.931 0.00 256 0.000
6/22/17 1:40p 79.5 75 70.9 5.0 S 16.0 79.5 29.931 0.00 180 0.000
6/22/17 1:35p 79.6 75 71.0 6.0 S 17.0 79.6 29.930 0.00 553 0.000
6/22/17 1:30p 79.3 76 71.1 4.0 SSW 9.0 79.3 29.933 0.00 403 0.000
6/22/17 1:25p 79.2 76 71.0 5.0 SSW 13.0 79.2 29.933 0.00 319 0.000
6/22/17 1:20p 79.4 75 70.8 5.0 S 14.0 79.4 29.935 0.00 291 0.000
6/22/17 1:15p 79.6 76 71.4 4.0 S 11.0 79.6 29.937 0.00 369 0.000
6/22/17 1:10p 79.7 76 71.5 5.0 S 11.0 79.7 29.938 0.00 506 0.000
6/22/17 1:05p 80.0 74 71.0 6.0 SSW 13.0 80.0 29.939 0.00 598 0.000
6/22/17 1:00p 80.0 78 72.5 2.0 SSW 10.0 80.0 29.942 0.00 549 0.014
6/22/17 12:55p 79.7 76 71.5 4.0 SSW 11.0 79.7 29.945 0.00 712 0.000
6/22/17 12:50p 79.4 77 71.6 6.0 SSW 12.0 79.4 29.944 0.00 725 0.000
6/22/17 12:45p 79.3 77 71.5 4.0 S 13.0 79.3 29.944 0.00 381 0.000
6/22/17 12:40p 79.1 78 71.6 4.0 S 11.0 79.1 29.948 0.00 381 0.000
6/22/17 12:35p 79.0 77 71.2 6.0 SSE 14.0 79.0 29.948 0.00 567 0.000
6/22/17 12:30p 78.9 78 71.5 5.0 SSW 9.0 78.9 29.947 0.00 596 0.000
6/22/17 12:25p 78.6 79 71.5 3.0 S 6.0 78.6 29.947 0.00 456 0.000
6/22/17 12:20p 78.3 78 70.9 6.0 S 11.0 78.3 29.948 0.00 466 0.000
6/22/17 12:15p 78.2 78 70.8 5.0 SSW 11.0 78.2 29.950 0.00 551 0.000
6/22/17 12:10p 77.9 79 70.9 4.0 SSE 10.0 77.9 29.949 0.00 424 0.000
6/22/17 12:05p 77.9 79 70.9 3.0 S 7.0 77.9 29.954 0.00 361 0.000
6/22/17 12:00p 77.8 80 71.1 3.0 SSW 7.0 77.8 29.956 0.00 364 0.009
6/22/17 11:55a 77.5 80 70.8 2.0 S 6.0 77.5 29.955 0.00 403 0.000
6/22/17 11:50a 77.2 80 70.5 4.0 SSE 8.0 77.2 29.956 0.00 344 0.000
6/22/17 11:45a 77.0 80 70.4 3.0 S 7.0 77.0 29.955 0.00 335 0.000
6/22/17 11:40a 76.9 80 70.3 4.0 SSW 7.0 76.9 29.953 0.00 322 0.000
6/22/17 11:35a 76.8 81 70.5 2.0 S 9.0 76.8 29.953 0.00 318 0.000
6/22/17 11:30a 76.6 81 70.3 3.0 S 10.0 76.6 29.955 0.00 301 0.000
6/22/17 11:25a 76.5 81 70.2 3.0 S 7.0 76.5 29.959 0.00 299 0.000
6/22/17 11:20a 76.5 81 70.2 2.0 S 6.0 76.5 29.959 0.00 315 0.000
6/22/17 11:15a 76.4 81 70.1 3.0 SSW 7.0 76.4 29.960 0.00 317 0.000
6/22/17 11:10a 76.4 81 70.1 2.0 SSW 7.0 76.4 29.960 0.00 301 0.000
6/22/17 11:05a 76.2 81 69.9 3.0 SSW 8.0 76.2 29.963 0.00 292 0.000
6/22/17 11:00a 76.2 81 69.9 3.0 SSW 6.0 76.2 29.961 0.00 292 0.007
6/22/17 10:55a 76.2 81 69.9 2.0 S 7.0 76.2 29.961 0.00 287 0.000
6/22/17 10:50a 76.1 82 70.2 1.0 SSW 5.0 76.1 29.963 0.00 277 0.000
6/22/17 10:45a 75.9 81 69.6 2.0 SSW 7.0 75.9 29.960 0.00 268 0.000
6/22/17 10:40a 75.9 82 70.0 3.0 SSW 6.0 75.9 29.961 0.00 269 0.000
6/22/17 10:35a 75.8 81 69.6 3.0 S 8.0 75.8 29.958 0.00 276 0.000
6/22/17 10:30a 75.8 82 69.9 2.0 S 7.0 75.8 29.957 0.00 280 0.000
6/22/17 10:25a 75.6 82 69.7 3.0 SSW 9.0 75.6 29.956 0.00 273 0.000
6/22/17 10:20a 75.5 82 69.6 3.0 SSW 7.0 75.5 29.958 0.00 256 0.000
6/22/17 10:15a 75.5 82 69.6 2.0 S 6.0 75.5 29.956 0.00 251 0.000
6/22/17 10:10a 75.4 82 69.5 3.0 S 8.0 75.4 29.954 0.00 242 0.000
6/22/17 10:05a 75.4 82 69.5 3.0 S 8.0 75.4 29.953 0.00 249 0.000
6/22/17 10:00a 75.3 83 69.8 2.0 SSW 7.0 75.3 29.953 0.00 241 0.006
6/22/17 9:55a 75.3 82 69.4 4.0 SSE 7.0 75.3 29.951 0.00 233 0.000
6/22/17 9:50a 75.3 84 70.1 1.0 S 7.0 75.3 29.950 0.00 243 0.000
6/22/17 9:45a 75.0 83 69.5 3.0 SSW 7.0 75.0 29.951 0.00 265 0.000
6/22/17 9:40a 74.8 84 69.6 2.0 S 5.0 74.8 29.950 0.00 228 0.000
6/22/17 9:35a 74.6 83 69.1 3.0 S 7.0 74.6 29.955 0.00 207 0.000
6/22/17 9:30a 74.5 84 69.3 2.0 S 6.0 74.5 29.953 0.00 209 0.000
6/22/17 9:25a 74.4 83 68.9 3.0 SSE 6.0 74.4 29.954 0.00 194 0.000
6/22/17 9:20a 74.4 83 68.9 1.0 S 5.0 74.4 29.954 0.00 186 0.000
6/22/17 9:15a 74.2 84 69.1 2.0 SSW 6.0 74.2 29.953 0.00 183 0.000
6/22/17 9:10a 74.1 84 69.0 2.0 S 10.0 74.1 29.950 0.00 194 0.000
6/22/17 9:05a 74.0 84 68.9 3.0 S 9.0 74.0 29.951 0.00 223 0.000
6/22/17 9:00a 73.8 84 68.7 3.0 SSW 9.0 73.8 29.950 0.00 290 0.004
6/22/17 8:55a 73.6 85 68.8 3.0 S 8.0 73.6 29.951 0.00 208 0.000
6/22/17 8:50a 73.4 85 68.6 2.0 S 6.0 73.4 29.948 0.00 141 0.000
6/22/17 8:45a 73.2 85 68.4 3.0 S 7.0 73.2 29.947 0.00 128 0.000
6/22/17 8:40a 73.1 85 68.3 2.0 SSW 7.0 73.1 29.948 0.00 125 0.000
6/22/17 8:35a 72.9 86 68.5 2.0 S 4.0 72.9 29.944 0.00 121 0.000
6/22/17 8:30a 72.7 86 68.3 2.0 SSW 5.0 72.7 29.942 0.00 121 0.000
6/22/17 8:25a 72.5 86 68.1 3.0 SSW 6.0 72.5 29.941 0.00 120 0.000
6/22/17 8:20a 72.2 86 67.8 2.0 S 6.0 72.2 29.942 0.00 124 0.000
6/22/17 8:15a 72.1 86 67.7 2.0 S 7.0 72.1 29.941 0.00 108 0.000
6/22/17 8:10a 72.0 87 67.9 2.0 S 8.0 72.0 29.941 0.00 100 0.000
6/22/17 8:05a 71.8 87 67.7 2.0 S 5.0 71.8 29.941 0.00 89 0.000
6/22/17 8:00a 71.7 87 67.6 3.0 S 7.0 71.7 29.943 0.00 93 0.002
6/22/17 7:55a 71.5 87 67.4 2.0 S 6.0 71.5 29.941 0.00 96 0.000
6/22/17 7:50a 71.3 87 67.2 2.0 S 5.0 71.3 29.941 0.00 86 0.000
6/22/17 7:45a 71.2 87 67.1 2.0 SSW 4.0 71.2 29.945 0.00 77 0.000
6/22/17 7:40a 71.1 87 67.0 1.0 SSW 4.0 71.1 29.944 0.00 69 0.000
6/22/17 7:35a 71.0 87 66.9 1.0 SSE 4.0 71.0 29.948 0.00 60 0.000
6/22/17 7:30a 70.9 87 66.8 2.0 S 5.0 70.9 29.941 0.00 54 0.000
6/22/17 7:25a 70.8 87 66.7 2.0 S 5.0 70.8 29.941 0.00 48 0.000
6/22/17 7:20a 70.7 87 66.6 1.0 S 5.0 70.7 29.939 0.00 43 0.000
6/22/17 7:15a 70.7 87 66.6 1.0 S 2.0 70.7 29.937 0.00 40 0.000
6/22/17 7:10a 70.6 87 66.5 1.0 S 3.0 70.6 29.936 0.00 35 0.000
6/22/17 7:05a 70.6 87 66.5 1.0 S 3.0 70.6 29.936 0.00 32 0.000
6/22/17 7:00a 70.5 87 66.4 1.0 SSW 3.0 70.5 29.935 0.00 28 0.001
6/22/17 6:55a 70.5 87 66.4 1.0 SSW 3.0 70.5 29.935 0.00 24 0.000
6/22/17 6:50a 70.5 86 66.1 1.0 SSE 3.0 70.5 29.936 0.00 20 0.000
6/22/17 6:45a 70.6 86 66.2 0.0 SSW 4.0 70.6 29.938 0.00 17 0.000
6/22/17 6:40a 70.5 86 66.1 2.0 SSW 5.0 70.5 29.939 0.00 13 0.000
6/22/17 6:35a 70.5 86 66.1 1.0 SSW 4.0 70.5 29.936 0.00 10 0.000
6/22/17 6:30a 70.5 86 66.1 2.0 S 5.0 70.5 29.938 0.00 6 0.000
6/22/17 6:25a 70.6 86 66.2 1.0 SSW 4.0 70.6 29.935 0.00 2 0.000
6/22/17 6:20a 70.6 86 66.2 1.0 SSW 3.0 70.6 29.934 0.00 0 0.000
6/22/17 6:15a 70.7 86 66.3 1.0 S 2.0 70.7 29.935 0.00 0 0.000
6/22/17 6:10a 70.8 86 66.4 1.0 S 3.0 70.8 29.936 0.00 0 0.000
6/22/17 6:05a 70.8 86 66.4 1.0 SSW 3.0 70.8 29.938 0.00 0 0.000
6/22/17 6:00a 70.8 86 66.4 0.0 SSW 3.0 70.8 29.939 0.00 0 0.001
6/22/17 5:55a 70.9 86 66.5 1.0 S 4.0 70.9 29.937 0.00 0 0.000
6/22/17 5:50a 71.0 86 66.6 1.0 SSW 3.0 71.0 29.934 0.00 0 0.000
6/22/17 5:45a 71.1 86 66.7 1.0 SSW 3.0 71.1 29.932 0.00 0 0.000
6/22/17 5:40a 71.1 85 66.4 2.0 SSW 5.0 71.1 29.932 0.00 0 0.000
6/22/17 5:35a 71.2 85 66.5 2.0 S 4.0 71.2 29.932 0.00 0 0.000
6/22/17 5:30a 71.3 85 66.6 1.0 SSW 3.0 71.3 29.934 0.00 0 0.000
6/22/17 5:25a 71.4 85 66.7 1.0 SSW 3.0 71.4 29.934 0.00 0 0.000
6/22/17 5:20a 71.5 85 66.8 0.0 SSW 2.0 71.5 29.934 0.00 0 0.000
6/22/17 5:15a 71.6 85 66.8 0.0 SSW 3.0 71.6 29.935 0.00 0 0.000
6/22/17 5:10a 71.7 85 66.9 0.0 S 2.0 71.7 29.939 0.00 0 0.000
6/22/17 5:05a 71.8 85 67.0 1.0 SSW 4.0 71.8 29.943 0.00 0 0.000
6/22/17 5:00a 71.9 84 66.8 1.0 SSW 3.0 71.9 29.942 0.00 0 0.001
6/22/17 4:55a 71.9 84 66.8 1.0 SSW 4.0 71.9 29.941 0.00 0 0.000
6/22/17 4:50a 72.0 84 66.9 1.0 SSW 5.0 72.0 29.943 0.00 0 0.000
6/22/17 4:45a 72.0 84 66.9 1.0 SSW 3.0 72.0 29.943 0.00 0 0.000
6/22/17 4:40a 72.1 84 67.0 0.0 SSE 2.0 72.1 29.945 0.00 0 0.000
6/22/17 4:35a 72.1 84 67.0 0.0 S 2.0 72.1 29.944 0.00 0 0.000
6/22/17 4:30a 72.2 84 67.1 0.0 S 1.0 72.2 29.944 0.00 0 0.000
6/22/17 4:25a 72.2 84 67.1 0.0 --- 0.0 72.2 29.943 0.00 0 0.000
6/22/17 4:20a 72.3 84 67.2 0.0 S 1.0 72.3 29.942 0.00 0 0.000
6/22/17 4:15a 72.3 84 67.2 0.0 S 1.0 72.3 29.943 0.00 0 0.000
6/22/17 4:10a 72.3 84 67.2 0.0 SSE 2.0 72.3 29.945 0.00 0 0.000
6/22/17 4:05a 72.4 84 67.3 0.0 --- 0.0 72.4 29.946 0.00 0 0.000
6/22/17 4:00a 72.5 83 67.0 0.0 S 2.0 72.5 29.944 0.00 0 0.001
6/22/17 3:55a 72.6 83 67.1 0.0 SSW 1.0 72.6 29.943 0.00 0 0.000
6/22/17 3:50a 72.7 83 67.2 0.0 SSE 2.0 72.7 29.942 0.00 0 0.000
6/22/17 3:45a 72.8 83 67.3 1.0 S 4.0 72.8 29.943 0.00 0 0.000
6/22/17 3:40a 72.8 83 67.3 1.0 SSE 2.0 72.8 29.942 0.00 0 0.000
6/22/17 3:35a 72.8 83 67.3 1.0 S 4.0 72.8 29.943 0.00 0 0.000
6/22/17 3:30a 72.9 82 67.1 1.0 SSE 4.0 72.9 29.944 0.00 0 0.000
6/22/17 3:25a 72.8 82 67.0 1.0 S 5.0 72.8 29.944 0.00 0 0.000
6/22/17 3:20a 72.8 83 67.3 1.0 S 5.0 72.8 29.945 0.00 0 0.000
6/22/17 3:15a 72.8 83 67.3 1.0 S 6.0 72.8 29.945 0.00 0 0.000
6/22/17 3:10a 72.8 82 67.0 0.0 SSW 2.0 72.8 29.944 0.00 0 0.000
6/22/17 3:05a 72.9 82 67.1 1.0 SSW 5.0 72.9 29.942 0.00 0 0.000
6/22/17 3:00a 72.9 82 67.1 1.0 S 4.0 72.9 29.942 0.00 0 0.001
6/22/17 2:55a 73.0 82 67.2 1.0 S 3.0 73.0 29.942 0.00 0 0.000
6/22/17 2:50a 73.0 82 67.2 1.0 S 4.0 73.0 29.943 0.00 0 0.000
6/22/17 2:45a 73.0 82 67.2 1.0 S 4.0 73.0 29.944 0.00 0 0.000
6/22/17 2:40a 73.0 82 67.2 0.0 --- 0.0 73.0 29.944 0.00 0 0.000
6/22/17 2:35a 73.0 82 67.2 0.0 --- 0.0 73.0 29.943 0.00 0 0.000
6/22/17 2:30a 73.1 82 67.3 0.0 --- 0.0 73.1 29.940 0.00 0 0.000
6/22/17 2:25a 73.1 82 67.3 0.0 --- 0.0 73.1 29.936 0.00 0 0.000
6/22/17 2:20a 73.1 82 67.3 0.0 S 1.0 73.1 29.938 0.00 0 0.000
6/22/17 2:15a 73.3 82 67.5 0.0 SSE 2.0 73.3 29.938 0.00 0 0.000
6/22/17 2:10a 73.3 82 67.5 0.0 S 2.0 73.3 29.936 0.00 0 0.000
6/22/17 2:05a 73.4 82 67.6 0.0 S 2.0 73.4 29.937 0.00 0 0.000
6/22/17 2:00a 73.4 82 67.6 1.0 S 4.0 73.4 29.938 0.00 0 0.001
6/22/17 1:55a 73.5 82 67.7 0.0 S 2.0 73.5 29.936 0.00 0 0.000
6/22/17 1:50a 73.6 81 67.4 0.0 S 3.0 73.6 29.936 0.00 0 0.000
6/22/17 1:45a 73.7 81 67.5 1.0 SSW 4.0 73.7 29.938 0.00 0 0.000
6/22/17 1:40a 73.8 81 67.6 0.0 S 2.0 73.8 29.937 0.00 0 0.000
6/22/17 1:35a 73.9 81 67.7 1.0 SSE 4.0 73.9 29.937 0.00 0 0.000
6/22/17 1:30a 74.0 81 67.8 0.0 SSE 2.0 74.0 29.937 0.00 0 0.000
6/22/17 1:25a 74.1 80 67.5 0.0 S 3.0 74.1 29.936 0.00 0 0.000
6/22/17 1:20a 74.2 80 67.6 0.0 S 3.0 74.2 29.937 0.00 0 0.000
6/22/17 1:15a 74.3 80 67.7 0.0 S 3.0 74.3 29.937 0.00 0 0.000
6/22/17 1:10a 74.4 79 67.5 0.0 S 3.0 74.4 29.936 0.00 0 0.000
6/22/17 1:05a 74.5 79 67.6 1.0 S 4.0 74.5 29.935 0.00 0 0.000
6/22/17 1:00a 74.6 79 67.7 1.0 S 3.0 74.6 29.931 0.00 0 0.001
6/22/17 12:55a 74.7 79 67.8 1.0 S 4.0 74.7 29.930 0.00 0 0.000
6/22/17 12:50a 74.7 78 67.4 1.0 S 6.0 74.7 29.929 0.00 0 0.000
6/22/17 12:45a 74.8 78 67.5 1.0 S 4.0 74.8 29.929 0.00 0 0.000
6/22/17 12:40a 74.8 78 67.5 1.0 S 4.0 74.8 29.927 0.00 0 0.000
6/22/17 12:35a 74.9 78 67.6 2.0 S 5.0 74.9 29.928 0.00 0 0.000
6/22/17 12:30a 75.0 78 67.7 1.0 SSW 3.0 75.0 29.928 0.00 0 0.000
6/22/17 12:25a 75.2 77 67.5 0.0 S 2.0 75.2 29.927 0.00 0 0.000
6/22/17 12:20a 75.3 77 67.6 1.0 S 4.0 75.3 29.925 0.00 0 0.000
6/22/17 12:15a 75.4 77 67.7 1.0 S 3.0 75.4 29.922 0.00 0 0.000
6/22/17 12:10a 75.5 77 67.8 1.0 SSW 6.0 75.5 29.926 0.00 0 0.000
6/22/17 12:05a 75.7 76 67.6 1.0 S 1.0 75.7 29.924 0.00 0 0.000

11,478 Page Views